Flight Track Log - Related Links

Times and Time Zones

All times are in EST time to prevent confusion due to time zone crossing. See the N81321 flight status page for this flight to view local times or setup timezone preferences in your user account.

Time Position Orientation Groundspeed Altitude Reporting Facility
EST Latitude Longitude Course Direction KTS MPH feet Rate Location/Type
Sat 03:38:22 PM 29.4661 -81.1942 99° East 75 86 500  Level Jacksonville Center
Sat 03:39:11 PM 29.4639 -81.1775 99° East 73 84 900 491 Climbing Jacksonville Center
Sat 03:40:12 PM 29.4533 -81.1683 143° Southeast 56 64 1,400 496 Climbing Jacksonville Center
Sat 03:41:12 PM 29.4383 -81.1589 151° Southeast 53 61 1,900 522 Climbing Jacksonville Center
Sat 03:42:07 PM 29.4239 -81.1544 165° South 57 66 2,400 466 Climbing Jacksonville Center
Sat 03:43:08 PM 29.4092 -81.1500 165° South 56 64 2,800 422 Climbing Jacksonville Center
Sat 03:44:15 PM 29.3922 -81.1456 167° South 52 60 3,300 425 Climbing Jacksonville Center
Sat 03:45:15 PM 29.3797 -81.1408 162° South 49 56 3,700 397 Climbing Jacksonville Center
Sat 03:46:16 PM 29.3650 -81.1364 165° South 49 56 4,100 246 Climbing Jacksonville Center
Sat 03:47:17 PM 29.3506 -81.1319 165° South 69 79 4,200 -49 Climbing Jacksonville Center
Sat 03:48:18 PM 29.3189 -81.1231 166° South 107 123 4,000 -94 Descending Jacksonville Center
Sat 03:49:25 PM 29.2917 -81.1117 160° South 97 112 4,000  Level Jacksonville Center
Sat 03:50:26 PM 29.2664 -81.1025 162° South 91 105 4,000 -52 Level Jacksonville Center
Sat 03:51:20 PM 29.2433 -81.0958 166° South 90 104 3,900  Descending Jacksonville Center
Sat 03:52:21 PM 29.2244 -81.0842 152° Southeast 79 91 4,000 94 Climbing Jacksonville Center
Sat 03:53:28 PM 29.1994 -81.0753 163° South 83 96 4,100 47 Climbing Jacksonville Center
Sat 03:54:29 PM 29.1764 -81.0683 165° South 87 100 4,100  Level Jacksonville Center
Sat 03:55:30 PM 29.1531 -81.0569 157° South 91 105 4,100  Level Jacksonville Center
Sat 03:56:31 PM 29.1281 -81.0456 158° South 90 104 4,100  Level Jacksonville Center
Sat 03:57:32 PM 29.1028 -81.0367 163° South 90 104 4,100  Level Jacksonville Center
Sat 03:58:32 PM 29.0797 -81.0275 161° South 97 112 4,100 50 Level Jacksonville Center
Sat 03:59:33 PM 29.0544 -81.0161 159° South 94 108 4,200  Climbing Jacksonville Center
Sat 04:00:34 PM 29.0292 -81.0069 162° South 95 109 4,100 -49 Descending Jacksonville Center
Sat 04:01:35 PM 29.0042 -80.9956 158° South 95 109 4,100  Level Jacksonville Center
Sat 04:03:14 PM 28.9667 -80.9833 164° South 95 109 4,100  Level Orlando TRACON
Sat 04:04:08 PM 28.9500 -80.9667 139° Southeast 90 104 4,100  Level Orlando TRACON
Sat 04:05:08 PM 28.9167 -80.9667 180° South 93 107 4,100  Level Orlando TRACON
Sat 04:06:08 PM 28.9000 -80.9500 139° Southeast 96 110 4,100  Level Orlando TRACON
Sat 04:07:08 PM 28.8667 -80.9333 156° South 92 106 4,100  Level Orlando TRACON
Sat 04:08:02 PM 28.8500 -80.9333 180° South 91 105 4,100 -53 Level Orlando TRACON
Sat 04:09:02 PM 28.8167 -80.9167 156° South 94 108 4,000 -48 Descending Orlando TRACON
Sat 04:10:08 PM 28.8000 -80.9167 180° South 93 107 4,000  Level Orlando TRACON
Sat 04:11:03 PM 28.7667 -80.9000 156° South 93 107 4,000 50 Level Orlando TRACON
Sat 04:12:09 PM 28.7500 -80.8833 139° Southeast 90 104 4,100 48 Climbing Orlando TRACON
Sat 04:13:09 PM 28.7167 -80.8833 180° South 90 104 4,100  Level Orlando TRACON
Sat 04:14:09 PM 28.7000 -80.8667 139° Southeast 92 106 4,100 -53 Level Orlando TRACON
Sat 04:15:03 PM 28.6833 -80.8667 180° South 100 115 4,000  Descending Orlando TRACON
Sat 04:16:03 PM 28.6500 -80.8500 156° South 97 112 4,100  Climbing Orlando TRACON
Sat 04:17:03 PM 28.6167 -80.8500 180° South 97 112 4,000  Descending Orlando TRACON
Sat 04:18:03 PM 28.6000 -80.8333 139° Southeast 96 110 4,100 50 Climbing Orlando TRACON
Sat 04:19:03 PM 28.5667 -80.8167 156° South 98 113 4,100  Level Orlando TRACON
Sat 04:20:04 PM 28.5500 -80.8167 180° South 94 108 4,100  Level Orlando TRACON
Sat 04:21:15 PM 28.5167 -80.8000 156° South 97 112 4,100 -45 Level Orlando TRACON
Sat 04:22:16 PM 28.4833 -80.7833 156° South 102 117 4,000 -50 Descending Orlando TRACON
Sat 04:23:16 PM 28.4667 -80.7833 180° South 98 113 4,000  Level Orlando TRACON
Sat 04:24:16 PM 28.4333 -80.7667 156° South 93 107 4,000 50 Level Orlando TRACON
Sat 04:25:16 PM 28.4167 -80.7667 180° South 92 106 4,100 56 Climbing Orlando TRACON
Sat 04:26:04 PM 28.4000 -80.7500 139° Southeast 94 108 4,100  Level Orlando TRACON
Sat 04:27:10 PM 28.3667 -80.7333 156° South 98 113 4,100 -48 Level Orlando TRACON
Sat 04:28:10 PM 28.3333 -80.7333 180° South 99 114 4,000  Descending Orlando TRACON
Sat 04:29:04 PM 28.3167 -80.7167 139° Southeast 97 112 4,100 50 Climbing Orlando TRACON
Sat 04:30:10 PM 28.2833 -80.7167 180° South 96 110 4,100  Level Orlando TRACON
Sat 04:31:16 PM 28.2667 -80.7000 139° Southeast 98 113 4,100  Level Orlando TRACON
Sat 04:32:16 PM 28.2333 -80.6833 156° South 96 110 4,100  Level Orlando TRACON
Sat 04:33:22 PM 28.2167 -80.6833 180° South 98 113 4,100 -50 Level Orlando TRACON
Sat 04:34:17 PM 28.1833 -80.6667 156° South 99 114 4,000 -52 Descending Orlando TRACON
Sat 04:35:17 PM 28.1667 -80.6500 139° Southeast 98 113 4,000  Level Orlando TRACON
Sat 04:36:17 PM 28.1333 -80.6500 180° South 95 109 4,000  Level Orlando TRACON
Sat 04:37:17 PM 28.1167 -80.6333 139° Southeast 90 104 4,000 50 Level Orlando TRACON
Sat 04:38:17 PM 28.0833 -80.6333 180° South 90 104 4,100 50 Climbing Orlando TRACON
Sat 04:39:17 PM 28.0667 -80.6333 180° South 91 105 4,100  Level Orlando TRACON
Sat 04:40:17 PM 28.0333 -80.6333 180° South 95 109 4,100  Level Orlando TRACON
Sat 04:42:00 PM 27.9900 -80.6425 191° South 94 108 4,100 -37 Level Miami Center
Sat 04:43:00 PM 27.9647 -80.6439 183° South 89 102 4,000 -50 Descending Miami Center
Sat 04:44:00 PM 27.9419 -80.6456 184° South 89 102 4,000  Level Miami Center
Sat 04:45:00 PM 27.9167 -80.6469 183° South 89 102 4,000  Level Miami Center
Sat 04:46:00 PM 27.8897 -80.6461 178° South 89 102 4,000  Level Miami Center
Sat 04:47:00 PM 27.8603 -80.6500 187° South 94 108 4,000  Level Miami Center
Sat 04:48:00 PM 27.8375 -80.6492 178° South 94 108 4,000  Level Miami Center
Sat 04:49:00 PM 27.8122 -80.6506 183° South 99 114 4,000 50 Level Miami Center
Sat 04:50:00 PM 27.7831 -80.6519 182° South 99 114 4,100 50 Climbing Miami Center
Sat 04:51:00 PM 27.7558 -80.6533 183° South 104 120 4,100  Level Miami Center
Sat 04:52:00 PM 27.7286 -80.6550 183° South 104 120 4,100  Level Miami Center
Sat 04:53:00 PM 27.7036 -80.6542 178° South 104 120 4,100 -50 Level Miami Center
Sat 04:54:00 PM 27.6764 -80.6556 183° South 104 120 4,000 -50 Descending Miami Center
Sat 04:55:00 PM 27.6472 -80.6569 182° South 104 120 4,000  Level Miami Center
Sat 04:56:00 PM 27.6200 -80.6583 183° South 99 114 4,000  Level Miami Center
Sat 04:57:00 PM 27.5928 -80.6597 183° South 99 114 4,000  Level Miami Center
Sat 04:58:00 PM 27.5700 -80.6614 184° South 104 120 4,000  Level Miami Center
Sat 04:59:00 PM 27.5428 -80.6628 183° South 104 120 4,000  Level Miami Center
Sat 05:00:00 PM 27.5114 -80.6617 178° South 104 120 4,000  Level Miami Center
Sat 05:01:00 PM 27.4864 -80.6608 178° South 104 120 4,000 50 Level Miami Center
Sat 05:02:00 PM 27.4592 -80.6647 187° South 104 120 4,100 50 Climbing Miami Center
Sat 05:03:00 PM 27.4361 -80.6639 178° South 104 120 4,100  Level Miami Center
Sat 05:04:00 PM 27.4111 -80.6678 188° South 104 120 4,100 -50 Level Miami Center
Sat 05:05:00 PM 27.3797 -80.6667 178° South 104 120 4,000  Descending Miami Center
Sat 05:06:00 PM 27.3525 -80.6683 183° South 104 120 4,100 50 Climbing Miami Center
Sat 05:07:00 PM 27.3275 -80.6697 183° South 104 120 4,100  Level Miami Center
Sat 05:08:00 PM 27.3025 -80.6711 183° South 104 120 4,100 -50 Level Miami Center
Sat 05:09:00 PM 27.2731 -80.6725 182° South 104 120 4,000 -50 Descending Miami Center
Sat 05:10:00 PM 27.2417 -80.6739 182° South 104 120 4,000  Level Miami Center
Sat 05:11:00 PM 27.2167 -80.6753 183° South 104 120 4,000 -50 Level Miami Center
Sat 05:12:00 PM 27.1875 -80.6767 182° South 104 120 3,900 -50 Descending Miami Center
Sat 05:13:00 PM 27.1644 -80.6783 184° South 104 120 3,900 50 Level Miami Center
Sat 05:14:00 PM 27.1372 -80.6775 178° South 104 120 4,000 50 Climbing Miami Center
Sat 05:15:00 PM 27.1058 -80.6786 182° South 104 120 4,000  Level Miami Center
Sat 05:16:00 PM 27.0808 -80.6803 183° South 104 120 4,000  Level Miami Center
Sat 05:17:00 PM 27.0558 -80.6817 183° South 104 120 4,000 -47 Level Miami Center
Sat 05:37:08 PM 26.5450 -80.4886 158° South 102 117 3,000 -47 Descending Miami Center
Sat 05:38:00 PM 26.5478 -80.5747 158° South  Level FlightAware Approximate
Sat 05:38:09 PM 26.5225 -80.4694 143° Southeast 105 121 3,000  Level Miami Center
Sat 05:39:00 PM 26.5245 -80.5641 158° South  Level FlightAware Approximate
Sat 05:39:10 PM 26.4981 -80.4456 139° Southeast 103 119 3,000  Level Miami Center
Sat 05:40:00 PM 26.5012 -80.5535 158° South  Level FlightAware Approximate
Sat 05:40:12 PM 26.4756 -80.4261 142° Southeast 101 116 3,100  Level Miami Center
Sat 05:41:00 PM 26.4779 -80.5429 158° South  Level FlightAware Approximate
Sat 05:41:13 PM 26.4550 -80.4069 140° Southeast 103 119 3,100  Level Miami Center
Sat 05:42:00 PM 26.4546 -80.5323 158° South  Level FlightAware Approximate
Sat 05:42:20 PM 26.4306 -80.3856 142° Southeast 106 122 3,000  Level Miami Center
Sat 05:43:15 PM 26.4058 -80.3661 145° Southeast 105 121 3,000 -52 Level Miami Center
Sat 05:44:16 PM 26.3856 -80.3447 137° Southeast 104 120 2,900  Descending Miami Center
Sat 05:45:23 PM 26.3589 -80.3231 144° Southeast 104 120 3,000  Climbing Miami Center
Sat 05:46:18 PM 26.3383 -80.3108 152° Southeast 105 121 2,900  Descending Miami Center
Sat 05:47:20 PM 26.3128 -80.3264 209° Southwest 100 115 3,000 49 Climbing Miami Center
Sat 05:48:21 PM 26.2917 -80.3442 217° Southwest 100 115 3,000 49 Level Miami Center
Sat 05:49:22 PM 26.2681 -80.3619 214° Southwest 99 114 3,100 47 Climbing Miami Center
Sat 05:50:29 PM 26.2428 -80.3775 209° Southwest 99 114 3,100 -49 Level Miami Center
Sat 05:51:24 PM 26.2156 -80.3744 174° South 103 119 3,000 -52 Descending Miami Center
Sat 05:52:25 PM 26.1886 -80.3644 162° South 110 127 3,000 -195 Level Miami Center
Sat 05:53:27 PM 26.1811 -80.3294 103° East 109 125 2,600 -439 Descending Miami Center
Sat 05:54:28 PM 26.1842 -80.2947 84° East 113 130 2,100 -541 Descending Miami Center
Sat 05:55:29 PM 26.1869 -80.2647 84° East 101 116 1,500 -563 Descending Miami Center
Sat 05:56:36 PM 26.1897 -80.2347 84° East 87 100 900 -469 Descending Miami Center
Sat 05:57:37 PM 26.1944 -80.2069 79° East 82 94 500 -393 Descending Miami Center
Sat 05:59:00 PM 26.1833 -80.1667 77° East  Level FlightAware Approximate
Sat 06:06:00 PM 26.1973 -80.1707 77° East  Level Estimated

Login

Don't have an account? Register now (free) for customized features, flight alerts, and more!